Time;durP1;ratioP1;P1;durP2;ratioP2;P2;SDS_P1;SDS_P2;PMS_P1;PMS_P2;Temp;Humidity;BMP_temperature;BMP_pressure;BME280_temperature;BME280_humidity;BME280_pressure;Samples;Min_cycle;Max_cycle;Signal;HPM_P1;HPM_P2
2023/11/04 00:00:22;;;;;;;4.07;2.30;;;;;;;5.53;100.00;96079.78;6107137;19;20003;-74
2023/11/04 00:02:23;;;;;;;3.60;1.55;;;;;;;5.53;100.00;96087.22;6106428;19;20461;-76
2023/11/04 00:04:23;;;;;;;8.25;1.95;;;;;;;5.55;100.00;96085.66;6104214;19;20679;-73
2023/11/04 00:06:24;;;;;;;3.80;2.13;;;;;;;5.55;100.00;96091.16;6107158;19;20019;-75
2023/11/04 00:08:26;;;;;;;5.30;1.92;;;;;;;5.59;100.00;96086.41;6105898;19;20007;-75
2023/11/04 00:10:26;;;;;;;4.07;2.27;;;;;;;5.59;100.00;96091.88;6110731;19;20482;-76
2023/11/04 00:12:27;;;;;;;4.80;2.10;;;;;;;5.62;100.00;96087.56;6111280;19;20235;-75
2023/11/04 00:14:27;;;;;;;6.93;2.65;;;;;;;5.63;100.00;96089.91;6110743;19;20006;-75
2023/11/04 00:16:28;;;;;;;4.00;1.90;;;;;;;5.63;100.00;96083.66;6112100;19;20011;-76
2023/11/04 00:18:28;;;;;;;5.57;1.95;;;;;;;5.61;100.00;96088.72;6112098;19;20006;-75
2023/11/04 00:20:28;;;;;;;4.85;2.00;;;;;;;5.59;100.00;96078.16;6111533;19;20007;-75
2023/11/04 00:22:29;;;;;;;2.40;1.50;;;;;;;5.56;100.00;96092.69;6111328;19;20090;-76
2023/11/04 00:24:30;;;;;;;4.38;1.75;;;;;;;5.56;100.00;96089.97;6111385;19;20029;-76
2023/11/04 00:26:30;;;;;;;4.85;1.67;;;;;;;5.56;100.00;96089.19;6112056;19;20011;-76
2023/11/04 00:28:34;;;;;;;4.68;2.17;;;;;;;5.58;100.00;96098.56;6111867;19;20010;-75
2023/11/04 00:30:34;;;;;;;7.25;2.80;;;;;;;5.55;100.00;96093.88;6113571;19;20010;-75
2023/11/04 00:32:35;;;;;;;4.30;2.00;;;;;;;5.57;100.00;96097.00;6111972;19;20025;-75
2023/11/04 00:34:35;;;;;;;9.90;2.70;;;;;;;5.61;100.00;96089.50;6112261;19;20010;-75
2023/11/04 00:36:35;;;;;;;7.53;2.20;;;;;;;5.61;100.00;96095.00;6112377;19;20029;-75
2023/11/04 00:38:37;;;;;;;6.03;2.53;;;;;;;5.60;100.00;96093.44;6113498;19;20010;-75
2023/11/04 00:40:37;;;;;;;4.47;2.60;;;;;;;5.61;100.00;96096.97;6112627;19;20462;-75
2023/11/04 00:42:37;;;;;;;8.95;2.83;;;;;;;5.57;100.00;96099.75;6112353;19;20007;-75
2023/11/04 00:44:38;;;;;;;6.18;2.67;;;;;;;5.59;100.00;96100.13;6111693;19;20014;-75
2023/11/04 00:46:39;;;;;;;5.78;2.63;;;;;;;5.60;100.00;96093.44;6113115;19;20006;-75
2023/11/04 00:48:39;;;;;;;5.18;2.45;;;;;;;5.58;100.00;96098.56;6111280;19;20010;-75
2023/11/04 00:50:40;;;;;;;5.13;2.08;;;;;;;5.54;100.00;96102.50;6112898;19;20011;-75
2023/11/04 00:52:40;;;;;;;5.45;2.15;;;;;;;5.51;100.00;96103.31;6112087;19;20011;-75
2023/11/04 00:54:40;;;;;;;5.55;2.00;;;;;;;5.47;100.00;96105.31;6111388;19;20079;-75
2023/11/04 00:56:41;;;;;;;4.88;2.10;;;;;;;5.42;100.00;96106.50;6112423;19;20014;-75
2023/11/04 00:58:41;;;;;;;5.63;2.20;;;;;;;5.43;100.00;96096.31;6112492;19;20030;-75
2023/11/04 01:00:42;;;;;;;2.95;2.10;;;;;;;5.42;100.00;96101.03;6112645;19;20065;-75
2023/11/04 01:02:42;;;;;;;5.50;2.20;;;;;;;5.46;100.00;96096.31;6111467;19;20689;-75
2023/11/04 01:04:42;;;;;;;6.97;2.55;;;;;;;5.47;100.00;96095.13;6111268;19;20011;-75
2023/11/04 01:06:43;;;;;;;5.07;2.63;;;;;;;5.47;100.00;96092.38;6112322;19;20017;-75
2023/11/04 01:08:43;;;;;;;5.00;2.70;;;;;;;5.47;100.00;96086.91;6111786;19;20021;-75
2023/11/04 01:10:43;;;;;;;5.95;2.97;;;;;;;5.45;100.00;96093.94;6112665;19;20335;-75
2023/11/04 01:12:44;;;;;;;6.70;2.78;;;;;;;5.45;100.00;96094.72;6112192;19;20014;-75
2023/11/04 01:14:44;;;;;;;4.50;2.85;;;;;;;5.43;100.00;96093.56;6108154;19;20018;-75
2023/11/04 01:16:44;;;;;;;6.32;2.67;;;;;;;5.46;100.00;96088.06;6111655;19;20410;-75
2023/11/04 01:18:45;;;;;;;4.22;1.95;;;;;;;5.50;100.00;96090.78;6110385;19;20040;-75
2023/11/04 01:20:46;;;;;;;9.40;2.50;;;;;;;5.54;100.00;96097.00;6111293;19;20010;-75
2023/11/04 01:22:46;;;;;;;6.53;2.63;;;;;;;5.56;100.00;96087.22;6109025;19;20011;-75
2023/11/04 01:24:47;;;;;;;8.23;2.25;;;;;;;5.61;100.00;96089.50;6111370;19;20302;-75
2023/11/04 01:26:48;;;;;;;8.25;2.55;;;;;;;5.66;100.00;96095.78;6111445;19;20002;-75
2023/11/04 01:28:48;;;;;;;2.75;1.75;;;;;;;5.72;100.00;96094.16;6111474;19;20036;-75
2023/11/04 01:30:48;;;;;;;5.90;2.30;;;;;;;5.74;100.00;96098.06;6111178;19;20321;-75
2023/11/04 01:32:49;;;;;;;5.88;2.65;;;;;;;5.83;100.00;96097.59;6111078;19;20438;-75
2023/11/04 01:34:50;;;;;;;11.02;3.42;;;;;;;5.84;100.00;96097.19;6110084;19;20007;-75
2023/11/04 01:36:50;;;;;;;7.28;3.25;;;;;;;5.89;100.00;96087.75;6111460;19;20006;-75
2023/11/04 01:38:50;;;;;;;4.60;2.80;;;;;;;5.90;100.00;96084.63;6110953;19;20384;-76
2023/11/04 01:40:51;;;;;;;9.93;3.17;;;;;;;5.93;100.00;96083.03;6110894;19;20463;-75
2023/11/04 01:42:52;;;;;;;5.20;2.55;;;;;;;6.02;100.00;96077.06;6110223;19;20006;-75
2023/11/04 01:44:52;;;;;;;5.18;2.33;;;;;;;6.11;100.00;96083.63;6110080;19;20436;-75
2023/11/04 01:46:53;;;;;;;3.80;1.90;;;;;;;6.10;100.00;96081.31;6110849;19;20023;-75
2023/11/04 01:48:53;;;;;;;2.75;2.00;;;;;;;6.11;100.00;96086.38;6111490;19;20007;-75
2023/11/04 01:50:53;;;;;;;4.85;2.20;;;;;;;6.05;100.00;96074.31;6110633;19;20003;-75
2023/11/04 01:52:54;;;;;;;6.53;2.80;;;;;;;6.12;100.00;96076.19;6110678;19;20007;-75
2023/11/04 01:54:54;;;;;;;4.47;2.30;;;;;;;6.16;100.00;96076.94;6107059;19;20010;-75
2023/11/04 01:56:55;;;;;;;4.22;2.30;;;;;;;6.14;100.00;96060.88;6111391;19;20447;-75
2023/11/04 01:58:56;;;;;;;5.75;2.40;;;;;;;6.20;100.00;96064.72;6110738;19;20066;-75
2023/11/04 02:00:58;;;;;;;5.00;2.47;;;;;;;6.21;100.00;96065.53;6108842;19;20007;-75
2023/11/04 02:02:59;;;;;;;4.80;2.57;;;;;;;6.35;100.00;96065.34;6109608;19;20447;-75
2023/11/04 02:05:00;;;;;;;4.03;2.00;;;;;;;6.31;100.00;96064.63;6109252;19;20097;-75
2023/11/04 02:07:00;;;;;;;2.33;1.58;;;;;;;6.39;100.00;96059.84;6110300;19;20010;-75
2023/11/04 02:09:00;;;;;;;3.85;1.50;;;;;;;6.40;100.00;96070.41;6111023;19;20349;-75
2023/11/04 02:11:02;;;;;;;4.47;2.53;;;;;;;6.36;100.00;96061.41;6109347;19;19999;-75
2023/11/04 02:13:02;;;;;;;3.97;1.50;;;;;;;6.30;100.00;96054.84;6110090;19;20022;-75
2023/11/04 02:15:03;;;;;;;4.30;2.47;;;;;;;6.33;100.00;96062.25;6108115;19;20420;-75
2023/11/04 02:17:03;;;;;;;3.10;1.77;;;;;;;6.37;100.00;96067.69;6110344;19;20007;-75
2023/11/04 02:19:04;;;;;;;4.80;1.80;;;;;;;6.33;100.00;96061.47;6110652;19;20278;-75
2023/11/04 02:21:05;;;;;;;2.35;1.40;;;;;;;6.36;100.00;96069.66;6110173;19;20003;-75
2023/11/04 02:23:06;;;;;;;4.72;1.80;;;;;;;6.29;100.00;96058.78;6109214;19;20002;-75
2023/11/04 02:25:06;;;;;;;4.68;1.50;;;;;;;6.30;100.00;96065.03;6108857;19;20002;-75
2023/11/04 02:27:06;;;;;;;4.75;1.60;;;;;;;6.29;100.00;96067.00;6109849;19;20459;-75
2023/11/04 02:29:07;;;;;;;3.22;1.27;;;;;;;6.39;100.00;96068.84;6099741;19;20002;-75
2023/11/04 02:31:07;;;;;;;1.88;1.33;;;;;;;6.39;100.00;96060.63;6109534;19;20016;-75
2023/11/04 02:33:08;;;;;;;2.10;1.15;;;;;;;6.41;100.00;96063.72;6109093;19;20005;-75
2023/11/04 02:35:08;;;;;;;4.40;1.40;;;;;;;6.40;100.00;96064.13;6108160;19;20109;-75
2023/11/04 02:37:08;;;;;;;2.83;1.40;;;;;;;6.38;100.00;96069.28;6109389;19;20034;-75
2023/11/04 02:39:09;;;;;;;1.67;1.42;;;;;;;6.33;100.00;96065.00;6109504;19;20450;-75
2023/11/04 02:41:10;;;;;;;3.38;1.40;;;;;;;6.39;100.00;96060.63;6109485;19;20328;-75
2023/11/04 02:43:10;;;;;;;2.35;1.30;;;;;;;6.34;100.00;96063.81;6108988;19;20061;-75
2023/11/04 02:45:11;;;;;;;2.45;1.20;;;;;;;6.34;100.00;96065.75;6106721;19;20423;-75
2023/11/04 02:47:11;;;;;;;4.82;1.70;;;;;;;6.32;100.00;96068.16;6108585;19;20008;-75
2023/11/04 02:49:11;;;;;;;2.33;1.50;;;;;;;6.28;100.00;96059.16;6109230;19;20010;-75
2023/11/04 02:51:12;;;;;;;1.85;1.60;;;;;;;6.29;100.00;96060.72;6108563;19;20009;-75
2023/11/04 02:53:13;;;;;;;3.65;1.50;;;;;;;6.27;100.00;96061.13;6108666;19;20112;-75
2023/11/04 02:55:13;;;;;;;2.83;1.50;;;;;;;6.25;100.00;96065.47;6108021;19;20395;-75
2023/11/04 02:57:13;;;;;;;3.65;1.58;;;;;;;6.27;100.00;96071.34;6108649;19;20003;-75
2023/11/04 02:59:14;;;;;;;1.85;1.48;;;;;;;6.27;100.00;96060.34;6109006;19;20006;-75
2023/11/04 03:01:14;;;;;;;3.17;1.30;;;;;;;6.23;100.00;96073.34;6108151;19;20035;-75
2023/11/04 03:03:14;;;;;;;1.70;1.38;;;;;;;6.23;100.00;96062.38;6108178;19;20010;-74
2023/11/04 03:05:15;;;;;;;2.28;1.30;;;;;;;6.22;100.00;96066.31;6107012;19;20003;-75
2023/11/04 03:07:16;;;;;;;2.85;1.00;;;;;;;6.19;100.00;96062.38;6109092;19;20387;-75
2023/11/04 03:09:16;;;;;;;1.85;1.30;;;;;;;6.16;100.00;96057.72;6108088;19;20014;-75
2023/11/04 03:11:17;;;;;;;2.13;1.15;;;;;;;6.23;100.00;96068.63;6108867;19;20015;-75
2023/11/04 03:13:17;;;;;;;3.47;1.30;;;;;;;6.25;100.00;96065.47;6107876;19;20006;-75
2023/11/04 03:15:17;;;;;;;1.90;1.33;;;;;;;6.23;100.00;96056.88;6107497;19;20070;-75
2023/11/04 03:17:18;;;;;;;1.17;1.02;;;;;;;6.19;100.00;96067.88;6107832;19;20006;-75
2023/11/04 03:19:18;;;;;;;3.88;1.67;;;;;;;6.19;100.00;96067.88;6109526;19;20470;-75
2023/11/04 03:21:20;;;;;;;2.22;1.30;;;;;;;6.19;100.00;96067.88;6107455;19;20397;-75
2023/11/04 03:23:20;;;;;;;2.05;1.10;;;;;;;6.18;100.00;96060.81;6108294;19;20010;-75
2023/11/04 03:25:21;;;;;;;1.42;1.00;;;;;;;6.18;100.00;96071.81;6106590;19;20026;-75
2023/11/04 03:27:21;;;;;;;2.63;1.10;;;;;;;6.22;100.00;96050.59;6108413;19;20030;-75
2023/11/04 03:29:22;;;;;;;2.13;1.55;;;;;;;6.17;100.00;96057.31;6101633;19;20447;-75
2023/11/04 03:31:22;;;;;;;2.50;1.10;;;;;;;6.25;100.00;96058.00;6100487;19;20003;-75
2023/11/04 03:33:22;;;;;;;1.33;1.20;;;;;;;6.27;100.00;96061.13;6101073;19;20006;-75
2023/11/04 03:35:22;;;;;;;2.45;1.27;;;;;;;6.29;100.00;96072.50;6100007;19;20070;-75
2023/11/04 03:37:23;;;;;;;1.42;1.17;;;;;;;6.25;100.00;96070.97;6101167;19;20035;-75
2023/11/04 03:39:23;;;;;;;3.25;1.52;;;;;;;6.27;100.00;96076.81;6101699;19;20006;-75
2023/11/04 03:41:24;;;;;;;3.08;1.60;;;;;;;6.32;100.00;96065.41;6100633;19;20003;-75
2023/11/04 03:43:24;;;;;;;1.73;1.63;;;;;;;6.29;100.00;96069.75;6100562;19;21000;-75
2023/11/04 03:45:24;;;;;;;3.13;1.65;;;;;;;6.25;100.00;96060.75;6102158;19;20010;-75
2023/11/04 03:47:25;;;;;;;2.15;1.30;;;;;;;6.26;100.00;96070.56;6106225;19;20328;-75
2023/11/04 03:49:25;;;;;;;1.63;1.40;;;;;;;6.25;100.00;96065.47;6106844;19;20766;-75
2023/11/04 03:51:26;;;;;;;1.80;1.50;;;;;;;6.28;100.00;96059.16;6105026;19;19998;-75
2023/11/04 03:53:26;;;;;;;2.15;1.70;;;;;;;6.27;100.00;96066.63;6107132;19;20195;-75
2023/11/04 03:55:26;;;;;;;2.17;1.30;;;;;;;6.18;100.00;96067.09;6104657;19;20055;-75
2023/11/04 03:57:27;;;;;;;1.77;1.25;;;;;;;6.21;100.00;96071.00;6105382;19;20007;-75
2023/11/04 03:59:27;;;;;;;2.65;1.60;;;;;;;6.18;100.00;96055.34;6106381;19;20007;-75
2023/11/04 04:01:27;;;;;;;3.22;1.40;;;;;;;6.19;100.00;96063.16;6102991;19;20010;-75
2023/11/04 04:03:28;;;;;;;3.10;1.48;;;;;;;6.19;100.00;96054.94;6105686;19;20330;-75
2023/11/04 04:05:33;;;;;;;2.58;1.60;;;;;;;6.16;100.00;96066.72;6104037;19;20024;-75
2023/11/04 04:07:34;;;;;;;2.47;1.70;;;;;;;6.11;100.00;96058.94;6105388;19;20332;-75
2023/11/04 04:09:35;;;;;;;2.47;1.52;;;;;;;6.20;100.00;96067.47;6105572;19;20269;-75
2023/11/04 04:11:35;;;;;;;2.33;1.40;;;;;;;6.15;100.00;96065.19;6104401;19;20007;-75
2023/11/04 04:13:36;;;;;;;4.13;1.50;;;;;;;6.19;100.00;96068.66;6105954;19;20492;-75
2023/11/04 04:15:36;;;;;;;3.38;1.45;;;;;;;6.13;100.00;96059.31;6104321;19;20002;-75
2023/11/04 04:17:37;;;;;;;1.75;1.30;;;;;;;6.15;100.00;96058.91;6106080;19;20484;-75
2023/11/04 04:19:37;;;;;;;2.00;1.55;;;;;;;6.20;100.00;96048.25;6104846;19;20239;-75
2023/11/04 04:21:38;;;;;;;4.50;1.40;;;;;;;6.14;100.00;96057.34;6105029;19;20006;-75
2023/11/04 04:23:38;;;;;;;2.80;1.20;;;;;;;6.16;100.00;96055.75;6104988;19;20017;-75
2023/11/04 04:25:40;;;;;;;3.03;1.33;;;;;;;6.19;100.00;96054.16;6103594;19;20023;-75
2023/11/04 04:27:41;;;;;;;1.35;1.15;;;;;;;6.20;100.00;96051.00;6106146;19;20447;-75
2023/11/04 04:29:41;;;;;;;2.05;1.40;;;;;;;6.21;100.00;96040.81;6111717;19;20007;-75
2023/11/04 04:31:42;;;;;;;2.67;1.40;;;;;;;6.17;100.00;96046.31;6110945;19;20002;-75
2023/11/04 04:33:43;;;;;;;1.55;1.10;;;;;;;6.11;100.00;96044.41;6111322;19;20081;-75
2023/11/04 04:35:43;;;;;;;1.73;1.30;;;;;;;6.08;100.00;96035.03;6111452;19;20024;-75
2023/11/04 04:37:43;;;;;;;1.90;1.30;;;;;;;6.05;100.00;96038.63;6109319;19;20059;-75
2023/11/04 04:39:44;;;;;;;3.80;1.40;;;;;;;6.08;100.00;96037.78;6110613;19;20014;-75
2023/11/04 04:41:45;;;;;;;1.45;1.10;;;;;;;6.12;100.00;96026.75;6111933;19;20561;-75
2023/11/04 04:43:45;;;;;;;1.08;0.98;;;;;;;6.10;100.00;96029.91;6111375;19;20007;-75
2023/11/04 04:45:45;;;;;;;4.10;1.48;;;;;;;6.18;100.00;96017.69;6110138;19;20066;-75
2023/11/04 04:47:46;;;;;;;1.50;0.95;;;;;;;6.19;100.00;96019.22;6112049;19;20377;-75
2023/11/04 04:49:47;;;;;;;1.50;0.90;;;;;;;6.16;100.00;96005.56;6112198;19;20003;-75
2023/11/04 04:51:47;;;;;;;2.10;1.02;;;;;;;6.19;100.00;96013.75;6111216;19;20006;-75
2023/11/04 04:53:48;;;;;;;1.48;1.05;;;;;;;6.20;100.00;96015.28;6109900;19;20006;-74
2023/11/04 04:55:48;;;;;;;1.30;1.00;;;;;;;6.29;100.00;96019.53;6109852;19;20017;-75
2023/11/04 04:57:49;;;;;;;1.00;0.90;;;;;;;6.23;100.00;96019.22;6111665;19;20007;-75
2023/11/04 04:59:49;;;;;;;1.40;1.00;;;;;;;6.23;100.00;96018.44;6111675;19;20023;-75
2023/11/04 05:01:49;;;;;;;1.48;0.90;;;;;;;6.26;100.00;96039.56;6112141;19;20024;-75
2023/11/04 05:03:50;;;;;;;1.00;0.90;;;;;;;6.19;100.00;96019.22;6111009;19;20031;-75
2023/11/04 05:05:50;;;;;;;1.40;1.10;;;;;;;6.18;100.00;96031.41;6109417;19;20086;-75
2023/11/04 05:07:51;;;;;;;1.38;1.00;;;;;;;6.23;100.00;96018.44;6112052;19;20010;-75
2023/11/04 05:09:51;;;;;;;1.45;1.00;;;;;;;6.16;100.00;96020.06;6111305;19;20006;-75
2023/11/04 05:11:52;;;;;;;1.08;0.90;;;;;;;6.13;100.00;96026.38;6110564;19;20006;-75
2023/11/04 05:13:53;;;;;;;4.05;1.23;;;;;;;6.17;100.00;96023.59;6111033;19;20011;-75
2023/11/04 05:15:54;;;;;;;1.65;1.10;;;;;;;6.24;100.00;96020.00;6110575;19;20011;-75
2023/11/04 05:17:54;;;;;;;1.50;1.00;;;;;;;6.18;100.00;96014.94;6111431;19;20015;-75
2023/11/04 05:19:55;;;;;;;1.83;1.17;;;;;;;6.24;100.00;96011.75;6110439;19;20010;-75
2023/11/04 05:21:56;;;;;;;1.25;0.93;;;;;;;6.20;100.00;96007.06;6110854;19;20387;-75
2023/11/04 05:23:56;;;;;;;1.20;1.10;;;;;;;6.22;100.00;96017.66;6110784;19;20082;-75
2023/11/04 05:25:57;;;;;;;2.28;1.00;;;;;;;6.20;100.00;96017.25;6109834;19;20023;-75
2023/11/04 05:27:58;;;;;;;1.40;1.08;;;;;;;6.17;100.00;96012.59;6110979;19;20011;-75
2023/11/04 05:29:59;;;;;;;1.58;1.10;;;;;;;6.19;100.00;96004.72;6112181;19;20491;-75
2023/11/04 05:32:00;;;;;;;1.33;1.15;;;;;;;6.28;100.00;96013.25;6110171;19;20322;-75
2023/11/04 05:34:01;;;;;;;2.15;0.98;;;;;;;6.38;100.00;96008.84;6110722;19;20126;-75
2023/11/04 05:36:01;;;;;;;1.15;1.00;;;;;;;6.32;100.00;96005.00;6109990;19;20480;-75
2023/11/04 05:38:01;;;;;;;2.25;1.27;;;;;;;6.26;100.00;95993.66;6109960;19;20034;-75
2023/11/04 05:40:03;;;;;;;1.25;0.85;;;;;;;6.23;100.00;95999.22;6109892;19;20040;-75
2023/11/04 05:42:05;;;;;;;1.30;1.00;;;;;;;6.20;100.00;95998.81;6110373;19;20007;-75
2023/11/04 05:44:06;;;;;;;1.10;1.00;;;;;;;6.31;100.00;96004.22;6110757;19;20023;-75
2023/11/04 05:46:07;;;;;;;1.63;1.10;;;;;;;6.27;100.00;96000.72;6108846;19;20011;-75
2023/11/04 05:48:08;;;;;;;1.00;0.90;;;;;;;6.23;100.00;96002.72;6110748;19;20002;-75
2023/11/04 05:50:08;;;;;;;1.08;0.80;;;;;;;6.23;100.00;96000.00;6110461;19;20010;-75
2023/11/04 05:52:08;;;;;;;1.15;1.00;;;;;;;6.20;100.00;95996.06;6109464;19;20002;-75
2023/11/04 05:54:11;;;;;;;1.85;1.15;;;;;;;6.19;100.00;96002.75;6109931;19;20101;-75
2023/11/04 05:56:16;;;;;;;2.03;0.90;;;;;;;6.18;100.00;95992.19;6109247;19;20003;-75
2023/11/04 05:58:17;;;;;;;1.33;1.00;;;;;;;6.18;100.00;95997.69;6110466;19;20006;-75
2023/11/04 06:00:17;;;;;;;1.63;1.10;;;;;;;6.17;100.00;95999.66;6110442;19;20107;-75
2023/11/04 06:02:18;;;;;;;1.40;0.85;;;;;;;6.15;100.00;95996.53;6110166;19;20006;-75
2023/11/04 06:04:18;;;;;;;1.45;1.17;;;;;;;6.11;100.00;96001.28;6109779;19;20006;-75
2023/11/04 06:06:20;;;;;;;1.13;1.00;;;;;;;6.10;100.00;95993.47;6109975;19;20007;-75
2023/11/04 06:08:20;;;;;;;2.07;0.93;;;;;;;6.07;100.00;95997.81;6108504;19;20009;-75
2023/11/04 06:10:21;;;;;;;1.98;0.90;;;;;;;6.09;100.00;95989.16;6109835;19;20022;-75
2023/11/04 06:12:21;;;;;;;1.27;0.93;;;;;;;6.09;100.00;95991.91;6109842;19;20022;-75
2023/11/04 06:14:22;;;;;;;1.45;1.08;;;;;;;6.09;100.00;95989.94;6109530;19;19999;-75
2023/11/04 06:16:22;;;;;;;3.13;1.52;;;;;;;6.12;100.00;95980.09;6109823;19;20409;-75
2023/11/04 06:18:22;;;;;;;1.70;1.10;;;;;;;6.18;100.00;95978.47;6109596;19;20011;-75
2023/11/04 06:20:23;;;;;;;1.02;0.95;;;;;;;6.25;100.00;95983.09;6110329;19;20009;-75
2023/11/04 06:22:24;;;;;;;2.45;0.98;;;;;;;6.20;100.00;95973.34;6109300;19;20017;-75
2023/11/04 06:24:24;;;;;;;1.45;1.17;;;;;;;6.18;100.00;95971.00;6107979;19;20469;-75
2023/11/04 06:26:24;;;;;;;2.90;1.20;;;;;;;6.22;100.00;95975.69;6110559;19;20015;-75
2023/11/04 06:28:25;;;;;;;1.70;1.33;;;;;;;6.16;100.00;95978.88;6110394;19;20044;-75
2023/11/04 06:30:25;;;;;;;1.67;1.17;;;;;;;6.15;100.00;95971.84;6108768;19;20392;-75
2023/11/04 06:32:25;;;;;;;2.67;1.25;;;;;;;6.11;100.00;95970.31;6109124;19;20760;-75
2023/11/04 06:34:26;;;;;;;1.50;1.10;;;;;;;6.14;100.00;95978.50;6107687;19;20010;-75
2023/11/04 06:36:31;;;;;;;2.13;1.10;;;;;;;6.16;100.00;95967.13;6107992;19;20037;-75
2023/11/04 06:38:31;;;;;;;1.45;1.10;;;;;;;6.12;100.00;95975.41;6108275;19;20753;-75
2023/11/04 06:40:33;;;;;;;1.30;1.17;;;;;;;6.20;100.00;95970.59;6109792;19;20252;-75
2023/11/04 06:42:33;;;;;;;1.10;0.98;;;;;;;6.17;100.00;95974.16;6108650;19;20013;-75
2023/11/04 06:44:34;;;;;;;1.60;1.20;;;;;;;6.19;100.00;95977.28;6107677;19;20322;-74
2023/11/04 06:46:35;;;;;;;2.28;1.10;;;;;;;6.25;100.00;95980.34;6109034;19;20006;-75
2023/11/04 06:48:35;;;;;;;1.63;1.05;;;;;;;6.24;100.00;95979.56;6109372;19;20007;-75
2023/11/04 06:50:36;;;;;;;2.10;0.98;;;;;;;6.25;100.00;95972.13;6108302;19;20007;-75
2023/11/04 06:52:36;;;;;;;1.30;1.08;;;;;;;6.21;100.00;95961.19;6108055;19;20010;-75
2023/11/04 06:54:37;;;;;;;2.92;1.00;;;;;;;6.22;100.00;95965.50;6108287;19;20399;-75
2023/11/04 06:56:38;;;;;;;2.42;1.40;;;;;;;6.24;100.00;95956.84;6109757;19;20027;-75
2023/11/04 06:58:39;;;;;;;2.17;1.20;;;;;;;6.24;100.00;95954.09;6108860;19;20519;-75
2023/11/04 07:00:40;;;;;;;1.67;1.05;;;;;;;6.24;100.00;95954.88;6108441;19;20316;-75
2023/11/04 07:02:41;;;;;;;2.03;1.20;;;;;;;6.24;100.00;95954.09;6108673;19;20042;-75
2023/11/04 07:04:41;;;;;;;1.15;0.93;;;;;;;6.26;100.00;95949.72;6106607;19;20490;-75
2023/11/04 07:06:44;;;;;;;2.22;1.23;;;;;;;6.29;100.00;95946.19;6108629;19;20063;-75
2023/11/04 07:08:45;;;;;;;2.72;1.10;;;;;;;6.30;100.00;95944.22;6109500;19;20494;-75
2023/11/04 07:10:46;;;;;;;1.30;0.85;;;;;;;6.34;100.00;95945.72;6108425;19;20451;-75
2023/11/04 07:12:46;;;;;;;1.65;1.05;;;;;;;6.31;100.00;95940.28;6107443;19;20115;-75
2023/11/04 07:14:47;;;;;;;3.45;1.15;;;;;;;6.36;100.00;95939.81;6106664;19;20494;-75
2023/11/04 07:16:47;;;;;;;3.20;1.10;;;;;;;6.41;100.00;95934.63;6109708;19;20074;-75
2023/11/04 07:18:48;;;;;;;1.50;1.10;;;;;;;6.43;100.00;95942.47;6107432;19;20018;-75
2023/11/04 07:20:48;;;;;;;1.38;1.20;;;;;;;6.43;100.00;95953.44;6106081;19;20026;-75
2023/11/04 07:22:48;;;;;;;1.75;1.00;;;;;;;6.43;100.00;95950.69;6107442;19;20399;-75
2023/11/04 07:24:49;;;;;;;1.67;1.17;;;;;;;6.44;100.00;95950.28;6107043;19;20017;-75
2023/11/04 07:26:49;;;;;;;2.22;1.00;;;;;;;6.43;100.00;95950.69;6106647;19;20530;-75
2023/11/04 07:28:50;;;;;;;2.97;1.00;;;;;;;6.53;100.00;95943.50;6097729;19;20406;-75
2023/11/04 07:30:51;;;;;;;1.25;1.00;;;;;;;6.52;100.00;95948.22;6107159;19;20011;-75
2023/11/04 07:32:52;;;;;;;1.38;1.10;;;;;;;6.53;100.00;95944.28;6106845;19;20011;-75
2023/11/04 07:34:53;;;;;;;2.03;1.00;;;;;;;6.55;100.00;95949.38;6102909;19;20045;-75
2023/11/04 07:36:53;;;;;;;1.77;0.98;;;;;;;6.57;100.00;95949.75;6108232;19;20022;-75
2023/11/04 07:38:53;;;;;;;6.75;1.80;;;;;;;6.57;100.00;95936.78;6105999;19;20045;-75
2023/11/04 07:40:54;;;;;;;1.83;1.20;;;;;;;6.65;100.00;95937.47;6104947;19;20499;-75
2023/11/04 07:42:55;;;;;;;3.17;2.15;;;;;;;6.66;100.00;95944.53;6107328;19;20033;-75
2023/11/04 07:44:55;;;;;;;1.67;1.10;;;;;;;6.67;100.00;95932.34;6106204;19;20016;-75
2023/11/04 07:46:59;;;;;;;1.65;1.30;;;;;;;6.63;100.00;95948.09;6107817;19;20017;-75
2023/11/04 07:49:00;;;;;;;1.85;1.20;;;;;;;6.64;100.00;95935.91;6107258;19;20038;-75
2023/11/04 07:51:01;;;;;;;1.20;1.10;;;;;;;6.63;100.00;95934.38;6107111;19;20118;-75
2023/11/04 07:53:02;;;;;;;1.35;1.20;;;;;;;6.62;100.00;95938.28;6106849;19;20523;-75
2023/11/04 07:55:06;;;;;;;2.40;1.25;;;;;;;6.66;100.00;95942.53;6105983;19;20013;-75
2023/11/04 07:57:06;;;;;;;1.20;1.10;;;;;;;6.67;100.00;95932.34;6107668;19;20007;-75
2023/11/04 07:59:07;;;;;;;1.58;1.13;;;;;;;6.64;100.00;95933.94;6106977;19;20121;-75
2023/11/04 08:01:07;;;;;;;1.77;1.00;;;;;;;6.67;100.00;95935.09;6107198;19;20358;-75
2023/11/04 08:03:07;;;;;;;1.58;1.20;;;;;;;6.71;100.00;95941.31;6106367;19;20010;-75
2023/11/04 08:05:09;;;;;;;2.50;1.10;;;;;;;6.76;100.00;95940.84;6106832;19;20070;-75
2023/11/04 08:07:10;;;;;;;1.42;1.17;;;;;;;6.74;100.00;95937.72;6107064;19;20467;-75
2023/11/04 08:09:10;;;;;;;1.48;1.30;;;;;;;6.73;100.00;95934.22;6106719;19;20010;-75
2023/11/04 08:11:11;;;;;;;1.80;1.40;;;;;;;6.70;100.00;95924.06;6107660;19;20017;-75
2023/11/04 08:13:11;;;;;;;5.60;1.20;;;;;;;6.72;100.00;95926.38;6106701;19;20027;-75
2023/11/04 08:15:12;;;;;;;1.60;1.23;;;;;;;6.78;100.00;95921.94;6105564;19;20003;-75
2023/11/04 08:17:12;;;;;;;2.00;1.75;;;;;;;6.76;100.00;95924.34;6107953;19;20090;-75
2023/11/04 08:19:12;;;;;;;2.25;1.67;;;;;;;6.75;100.00;95918.06;6106445;19;20011;-75
2023/11/04 08:21:17;;;;;;;2.70;2.05;;;;;;;6.83;100.00;95926.22;6106954;19;20015;-75
2023/11/04 08:23:19;;;;;;;4.38;3.00;;;;;;;6.93;100.00;95912.31;6105755;19;20018;-75
2023/11/04 08:25:19;;;;;;;8.15;4.57;;;;;;;6.98;100.00;95916.56;6106222;19;20232;-75
2023/11/04 08:27:20;;;;;;;4.82;3.60;;;;;;;7.01;100.00;95916.50;6104868;19;20002;-75
2023/11/04 08:29:20;;;;;;;3.95;2.40;;;;;;;7.02;100.00;95912.56;6100810;19;20002;-75
2023/11/04 08:31:21;;;;;;;4.30;2.20;;;;;;;7.03;100.00;95914.13;6100096;19;20103;-75
2023/11/04 08:33:21;;;;;;;3.33;2.30;;;;;;;7.08;100.00;95910.13;6104539;19;20060;-75
2023/11/04 08:35:22;;;;;;;2.35;1.10;;;;;;;7.21;100.00;95916.59;6104054;19;20002;-75
2023/11/04 08:37:22;;;;;;;2.50;1.80;;;;;;;7.28;100.00;95899.97;6105897;19;20070;-75
2023/11/04 08:39:23;;;;;;;1.55;1.30;;;;;;;7.29;100.00;95892.50;6105326;19;20015;-75
2023/11/04 08:41:23;;;;;;;1.52;1.30;;;;;;;7.33;100.00;95882.19;6105691;19;20002;-75
2023/11/04 08:43:23;;;;;;;1.50;0.95;;;;;;;7.26;100.00;95885.06;6104812;19;20335;-75
2023/11/04 08:45:24;;;;;;;3.20;1.30;;;;;;;7.29;100.00;95870.50;6103955;19;20646;-75
2023/11/04 08:47:24;;;;;;;2.85;0.98;;;;;;;7.22;100.00;95867.88;6104768;19;20440;-75
2023/11/04 08:49:25;;;;;;;1.83;1.10;;;;;;;7.19;100.00;95857.69;6104896;19;20003;-75
2023/11/04 08:51:25;;;;;;;1.30;0.90;;;;;;;7.18;100.00;95851.41;6105609;19;20025;-75
2023/11/04 08:53:25;;;;;;;1.02;0.98;;;;;;;7.17;100.00;95841.63;6101983;19;20070;-75
2023/11/04 08:55:26;;;;;;;1.10;0.90;;;;;;;7.12;100.00;95841.34;6102506;19;20074;-75
2023/11/04 08:57:27;;;;;;;1.30;1.00;;;;;;;7.13;100.00;95845.63;6104254;19;20006;-75
2023/11/04 08:59:29;;;;;;;2.30;1.02;;;;;;;7.13;100.00;95842.88;6103826;19;20500;-75
2023/11/04 09:01:29;;;;;;;2.85;0.95;;;;;;;7.14;100.00;95856.22;6102578;19;20050;-75
2023/11/04 09:03:30;;;;;;;0.75;0.70;;;;;;;7.09;100.00;95844.91;6104613;19;20503;-75
2023/11/04 09:05:30;;;;;;;1.35;0.90;;;;;;;7.12;100.00;95847.63;6102045;19;20007;-75
2023/11/04 09:07:30;;;;;;;2.58;1.17;;;;;;;7.16;100.00;95842.81;6104256;19;20325;-75
2023/11/04 09:09:31;;;;;;;1.55;0.95;;;;;;;7.16;100.00;95853.03;6103598;19;20062;-75
2023/11/04 09:11:32;;;;;;;1.00;0.90;;;;;;;7.20;100.00;95840.00;6103403;19;19999;-75
2023/11/04 09:13:32;;;;;;;1.15;1.00;;;;;;;7.18;100.00;95845.91;6102791;19;20382;-75
2023/11/04 09:15:35;;;;;;;1.20;0.90;;;;;;;7.20;100.00;95851.78;6102216;19;20030;-75
2023/11/04 09:17:38;;;;;;;1.73;0.98;;;;;;;7.20;100.00;95843.53;6103384;19;20018;-75
2023/11/04 09:19:38;;;;;;;1.35;1.00;;;;;;;7.23;100.00;95853.69;6104263;19;20014;-75
2023/11/04 09:21:39;;;;;;;1.98;0.98;;;;;;;7.26;100.00;95843.81;6102466;19;20010;-75
2023/11/04 09:23:40;;;;;;;1.33;0.70;;;;;;;7.26;100.00;95852.06;6103691;19;20471;-75
2023/11/04 09:25:40;;;;;;;2.30;1.10;;;;;;;7.26;100.00;95849.31;6103015;19;20022;-75
2023/11/04 09:27:41;;;;;;;1.92;1.20;;;;;;;7.31;100.00;95846.09;6102711;19;20021;-75